METAR rapporter

 

EKAH - Tirstrup (civ/Mi, Denmark
Afstand fra stationen: SSV 25km
Opdateret: 01/12/2020 12:50
Let Tåge, Overskyet
Let Tåge, Overskyet
 Vind fra NØ
Vind: NØ 4 km/h
Temperatur: 5°C
Dugpunkt: 5°C
Fugtighed: 100%
Barometer: 1018 hPa
Oversigt: Let Tåge
Skydække: Overskyet
Sigtbarhed: 5 km
Skyhøjde: Overskyet 274 m
2020/12/01 11:50 EKAH 011150Z AUTO 05002KT 5000 BR OVC009/// 05/05 Q1018
EKYT - Alborg, Denmark
Afstand fra stationen: NV 91km
Opdateret: 01/12/2020 12:50
Mest skyet
Mest skyet
 Vind fra NØ
Vind: NØ 11 km/h
Temperatur: 5°C
Kuldeindeks: 2°C
Dugpunkt: 5°C
Fugtighed: 100%
Barometer: 1019 hPa
Skydække: Mest skyet
Sigtbarhed: 5 km
Skyhøjde: Delvist skyet 427 m
Mest skyet 518 m
2020/12/01 11:50 EKYT 011150Z AUTO 04006KT 5000 SCT014/// BKN017/// 05/05 Q1019
EKKA - Karup (dan-Afb), Denmark
Afstand fra stationen: V 107km
Opdateret: 01/12/2020 12:50
Let Tåge, Overskyet
Let Tåge, Overskyet
 Vind fra NØ
Vind: NØ 13 km/h
Temperatur: 4°C
Kuldeindeks: 1°C
Dugpunkt: 3°C
Fugtighed: 93%
Barometer: 1018 hPa
Oversigt: Let Tåge
Skydække: Overskyet
Sigtbarhed: 3 km
Skyhøjde: Mest skyet 91 m
Overskyet 122 m
2020/12/01 11:50 EKKA 011150Z 04007KT 3000 BR BKN003 OVC004 04/03 Q1018 TEMPO 2500 BKN005
 
EKOD - Odense/Beldringe, Denmark
Afstand fra stationen: SSV 116km
Opdateret: 01/12/2020 12:50
Let Tåge, Overskyet
Let Tåge, Overskyet
 Vind fra ØNØ
Vind: ØNØ 9 km/h
Temperatur: 5°C
Kuldeindeks: 3°C
Dugpunkt: 4°C
Fugtighed: 93%
Barometer: 1017 hPa
Oversigt: Let Tåge
Skydække: Overskyet
Sigtbarhed: 3 km
Skyhøjde: Få skyer 152 m
Mest skyet 305 m
Overskyet 396 m
2020/12/01 11:50 EKOD 011150Z 06005KT 030V090 2800 BR FEW005 BKN010 OVC013 05/04 Q1017
EKBI - Billund Airport, Denmark
Afstand fra stationen: SV 134km
Opdateret: 01/12/2020 12:50
Overskyet
Overskyet
 Vind fra NØ
Vind: NØ 9 km/h
Temperatur: 5°C
Kuldeindeks: 3°C
Dugpunkt: 4°C
Fugtighed: 93%
Barometer: 1017 hPa
Skydække: Overskyet
Sigtbarhed: 10 km
Skyhøjde: Overskyet 152 m
2020/12/01 11:50 EKBI 011150Z AUTO 04005KT 9999 OVC005/// 05/04 Q1017
EKCH - Copenhagen/Kastr, Denmark
Afstand fra stationen: SØ 148km
Opdateret: 01/12/2020 12:50
Mest skyet
Mest skyet
 Vind fra ØSØ
Vind: ØSØ 13 km/h
Temperatur: 5°C
Kuldeindeks: 2°C
Dugpunkt: 3°C
Fugtighed: 87%
Barometer: 1018 hPa
Skydække: Mest skyet
Sigtbarhed: 10 km
Skyhøjde: Få skyer 366 m
Mest skyet 457 m
2020/12/01 11:50 EKCH 011150Z 12007KT 9999 FEW012 BKN015 05/03 Q1018 TEMPO BKN008